createdAt,value
2018-12-11T00:00:08.565Z,84.86
2018-12-11T00:02:40.597Z,84.94
2018-12-11T00:05:12.628Z,84.25
2018-12-11T00:07:42.726Z,84.88
2018-12-11T00:10:13.711Z,84.33
2018-12-11T00:12:43.783Z,85.02
2018-12-11T00:18:31.173Z,85.62
2018-12-11T00:21:23.259Z,85.88
2018-12-11T00:23:53.637Z,85.45
2018-12-11T00:26:25.259Z,85.56
2018-12-11T00:28:55.975Z,86.08
2018-12-11T00:31:27.728Z,85.97
2018-12-11T00:33:59.934Z,85.29
2018-12-11T00:36:29.918Z,85.58
2018-12-11T00:38:59.937Z,85.84
2018-12-11T00:41:29.954Z,85.89
2018-12-11T00:44:00.094Z,85.26
2018-12-11T00:46:30.448Z,85.47
2018-12-11T00:49:00.418Z,84.73
2018-12-11T00:51:30.502Z,84.65
2018-12-11T00:54:00.506Z,84.87
2018-12-11T00:56:30.687Z,85.25
2018-12-11T00:59:00.771Z,85.18
2018-12-11T01:01:30.831Z,84.82
2018-12-11T01:04:00.872Z,84.55
2018-12-11T01:06:30.991Z,84.15
2018-12-11T01:09:17.860Z,83.17
2018-12-11T01:11:47.876Z,82.10
2018-12-11T01:14:17.989Z,81.37
2018-12-11T01:16:48.059Z,81.33
2018-12-11T01:19:18.085Z,80.73
2018-12-11T01:21:48.156Z,80.72
2018-12-11T01:24:18.152Z,80.56
2018-12-11T01:27:00.929Z,81.02
2018-12-11T01:29:30.956Z,80.97
2018-12-11T01:32:00.980Z,81.33
2018-12-11T01:34:30.978Z,81.81
2018-12-11T01:37:01.032Z,81.98
2018-12-11T01:39:31.106Z,82.88
2018-12-11T01:42:06.560Z,82.70
2018-12-11T01:44:36.672Z,83.42
2018-12-11T01:47:06.662Z,83.27
2018-12-11T01:49:38.271Z,83.69
2018-12-11T01:52:08.325Z,83.45
2018-12-11T01:54:38.503Z,83.43
2018-12-11T01:57:08.556Z,83.86
2018-12-11T01:59:38.525Z,83.98
2018-12-11T02:02:14.032Z,84.23
2018-12-11T02:04:44.222Z,84.16
2018-12-11T02:07:24.494Z,84.89
2018-12-11T02:09:54.564Z,84.35
2018-12-11T02:12:24.632Z,84.64
2018-12-11T02:14:57.650Z,84.51
2018-12-11T02:17:27.541Z,84.34
2018-12-11T02:19:57.562Z,84.60
2018-12-11T02:22:27.622Z,84.96
2018-12-11T02:24:57.631Z,84.92
2018-12-11T02:27:27.596Z,84.16
2018-12-11T02:29:59.711Z,84.05
2018-12-11T02:32:29.734Z,84.68
2018-12-11T02:34:59.749Z,84.09
2018-12-11T02:37:29.710Z,84.58
2018-12-11T02:39:59.845Z,84.56
2018-12-11T02:42:29.898Z,84.26
2018-12-11T02:44:59.916Z,84.28
2018-12-11T02:47:29.878Z,84.26
2018-12-11T02:53:10.145Z,83.82
2018-12-11T02:55:40.208Z,83.81
2018-12-11T02:58:10.276Z,83.63
2018-12-11T03:00:40.312Z,83.58
2018-12-11T03:03:10.161Z,83.47
2018-12-11T03:05:40.169Z,83.65
2018-12-11T03:08:10.190Z,83.44
2018-12-11T03:10:40.089Z,83.38
2018-12-11T03:13:10.559Z,83.03
2018-12-11T03:15:40.883Z,83.10
2018-12-11T03:18:29.481Z,83.60
2018-12-11T03:20:59.516Z,83.57
2018-12-11T03:23:49.711Z,83.57
2018-12-11T03:26:19.723Z,83.78
2018-12-11T03:28:49.606Z,83.51
2018-12-11T03:31:21.395Z,83.53
2018-12-11T03:33:55.227Z,83.68
2018-12-11T03:36:27.005Z,83.35
2018-12-11T03:38:57.251Z,83.01
2018-12-11T03:41:27.389Z,83.27
2018-12-11T03:44:00.217Z,84.18
2018-12-11T03:46:30.359Z,84.14
2018-12-11T03:49:00.485Z,84.12
2018-12-11T03:51:30.466Z,83.98
2018-12-11T03:54:00.624Z,84.48
2018-12-11T03:56:31.001Z,84.69
2018-12-11T03:59:01.099Z,84.58
2018-12-11T04:01:31.087Z,85.08
2018-12-11T04:04:03.254Z,84.93
2018-12-11T04:06:36.801Z,85.27
2018-12-11T04:09:08.338Z,85.59
2018-12-11T04:11:49.565Z,85.75
2018-12-11T04:14:21.788Z,84.82
2018-12-11T04:16:55.527Z,85.01
2018-12-11T04:19:27.957Z,85.26
2018-12-11T04:22:00.090Z,84.99
2018-12-11T04:24:31.253Z,85.42
2018-12-11T04:27:06.744Z,85.41
2018-12-11T04:29:36.912Z,84.69
2018-12-11T04:32:12.401Z,85.15
2018-12-11T04:34:42.445Z,84.66
2018-12-11T04:37:16.179Z,84.93
2018-12-11T04:39:46.220Z,84.55
2018-12-11T04:42:20.728Z,85.36
2018-12-11T04:44:50.851Z,84.78
2018-12-11T04:47:20.914Z,85.13
2018-12-11T04:49:52.438Z,85.19
2018-12-11T04:52:26.323Z,85.15
2018-12-11T04:54:59.605Z,84.77
2018-12-11T04:57:29.734Z,84.92
2018-12-11T04:59:59.955Z,84.96
2018-12-11T05:02:31.962Z,84.43
2018-12-11T05:08:13.437Z,84.46
2018-12-11T05:10:47.064Z,84.83
2018-12-11T05:13:17.609Z,84.51
2018-12-11T05:15:47.835Z,84.53
2018-12-11T05:18:17.845Z,85.17
2018-12-11T05:20:47.880Z,85.26
2018-12-11T05:23:18.844Z,85.09
2018-12-11T05:25:48.824Z,85.00
2018-12-11T05:28:18.809Z,84.96
2018-12-11T05:30:48.859Z,85.25
2018-12-11T05:33:18.987Z,85.73
2018-12-11T05:35:48.946Z,85.63
2018-12-11T05:38:19.017Z,85.85
2018-12-11T05:40:49.104Z,85.57
2018-12-11T05:43:19.137Z,86.12
2018-12-11T05:45:49.302Z,86.25
2018-12-11T05:48:19.378Z,86.24
2018-12-11T05:50:50.149Z,86.06
2018-12-11T05:53:21.721Z,86.55
2018-12-11T05:55:52.089Z,86.82
2018-12-11T05:58:22.135Z,86.72
2018-12-11T06:00:52.513Z,86.63
2018-12-11T06:03:22.609Z,86.92
2018-12-11T06:05:52.733Z,86.52
2018-12-11T06:08:23.014Z,86.81
2018-12-11T06:10:54.760Z,86.91
2018-12-11T06:13:25.000Z,86.72
2018-12-11T06:15:55.022Z,87.28
2018-12-11T06:18:29.214Z,87.50
2018-12-11T06:20:59.313Z,87.14
2018-12-11T06:23:29.362Z,87.49
2018-12-11T06:25:59.524Z,87.02
2018-12-11T06:28:29.420Z,87.93
2018-12-11T06:30:59.595Z,87.63
2018-12-11T06:33:31.555Z,87.70
2018-12-11T06:36:03.353Z,87.89
2018-12-11T06:38:33.871Z,87.94
2018-12-11T06:41:05.586Z,88.17
2018-12-11T06:43:37.546Z,88.37
2018-12-11T06:46:08.454Z,88.40
2018-12-11T06:48:39.295Z,88.44
2018-12-11T06:51:09.450Z,87.95
2018-12-11T06:53:39.924Z,88.33
2018-12-11T06:56:09.970Z,88.73
2018-12-11T06:58:40.834Z,88.49
2018-12-11T07:01:11.226Z,88.33
2018-12-11T07:03:41.233Z,88.48
2018-12-11T07:06:11.468Z,88.89
2018-12-11T07:08:42.569Z,88.89
2018-12-11T07:11:12.554Z,88.83
2018-12-11T07:13:42.604Z,88.49
2018-12-11T07:16:12.663Z,88.31
2018-12-11T07:18:43.779Z,88.50
2018-12-11T07:21:13.618Z,88.16
2018-12-11T07:23:43.685Z,88.52
2018-12-11T07:26:13.796Z,88.96
2018-12-11T07:28:43.865Z,88.52
2018-12-11T07:31:13.854Z,88.55
2018-12-11T07:33:50.679Z,88.90
2018-12-11T07:36:16.891Z,89.07
2018-12-11T07:38:47.837Z,88.62
2018-12-11T07:41:17.875Z,89.00
2018-12-11T07:43:49.641Z,88.75
2018-12-11T07:46:21.522Z,88.48
2018-12-11T07:48:53.406Z,88.63
2018-12-11T07:51:23.446Z,89.34
2018-12-11T07:53:53.478Z,89.08
2018-12-11T07:56:25.312Z,88.50
2018-12-11T07:58:55.961Z,89.10
2018-12-11T08:01:26.523Z,89.31
2018-12-11T08:03:56.695Z,88.86
2018-12-11T08:06:28.503Z,89.29
2018-12-11T08:09:00.404Z,89.35
2018-12-11T08:11:32.218Z,88.83
2018-12-11T08:14:04.047Z,89.32
2018-12-11T08:16:37.285Z,88.91
2018-12-11T08:19:08.654Z,89.37
2018-12-11T08:21:40.387Z,88.60
2018-12-11T08:24:12.327Z,88.74
2018-12-11T08:26:44.238Z,88.52
2018-12-11T08:29:14.714Z,88.40
2018-12-11T08:31:46.627Z,88.80
2018-12-11T08:34:18.500Z,88.87
2018-12-11T08:36:50.249Z,88.73
2018-12-11T08:39:21.960Z,88.20
2018-12-11T08:41:54.027Z,88.32
2018-12-11T08:44:25.796Z,88.26
2018-12-11T08:46:57.730Z,88.81
2018-12-11T08:49:29.450Z,88.36
2018-12-11T08:52:01.216Z,88.81
2018-12-11T08:54:32.977Z,88.06
2018-12-11T08:57:04.933Z,88.19
2018-12-11T08:59:36.725Z,88.09
2018-12-11T09:02:08.641Z,87.95
2018-12-11T09:04:41.398Z,87.92
2018-12-11T09:07:13.412Z,87.76
2018-12-11T09:09:43.496Z,87.35
2018-12-11T09:12:14.712Z,87.27
2018-12-11T09:14:44.809Z,87.47
2018-12-11T09:17:14.916Z,87.17
2018-12-11T09:19:45.066Z,87.41
2018-12-11T09:22:15.187Z,86.64
2018-12-11T09:24:45.266Z,86.75
2018-12-11T09:27:15.506Z,86.57
2018-12-11T09:29:45.553Z,85.43
2018-12-11T09:32:15.581Z,85.55
2018-12-11T09:34:45.513Z,85.27
2018-12-11T09:37:17.299Z,84.43
2018-12-11T09:39:46.602Z,84.46
2018-12-11T09:45:28.072Z,83.20
2018-12-11T09:48:05.051Z,83.57
2018-12-11T09:50:41.430Z,82.48
2018-12-11T09:53:14.940Z,81.71
2018-12-11T09:55:50.775Z,81.39
2018-12-11T09:58:26.756Z,81.38
2018-12-11T10:01:06.934Z,80.51
2018-12-11T10:03:43.795Z,80.67
2018-12-11T10:06:19.615Z,80.26
2018-12-11T10:08:59.954Z,79.77
2018-12-11T10:11:33.554Z,79.02
2018-12-11T10:14:08.982Z,77.99
2018-12-11T10:16:45.388Z,77.72
2018-12-11T10:19:21.461Z,78.31
2018-12-11T10:21:57.813Z,78.05
2018-12-11T10:24:33.833Z,76.75
2018-12-11T10:27:07.933Z,77.02
2018-12-11T10:29:43.650Z,77.43
2018-12-11T10:32:19.965Z,77.29
2018-12-11T10:34:55.893Z,75.75
2018-12-11T10:37:33.978Z,74.83
2018-12-11T10:40:10.216Z,74.31
2018-12-11T10:42:44.202Z,73.78
2018-12-11T10:45:19.747Z,73.34
2018-12-11T10:47:57.797Z,73.21
2018-12-11T10:53:25.615Z,72.24
2018-12-11T10:56:02.809Z,71.93
2018-12-11T10:58:36.731Z,71.57
2018-12-11T11:01:15.882Z,71.58
2018-12-11T11:03:52.009Z,70.42
2018-12-11T11:06:29.359Z,70.58
2018-12-11T11:09:07.982Z,70.24
2018-12-11T11:11:47.372Z,70.60
2018-12-11T11:14:21.165Z,69.64
2018-12-11T11:16:56.849Z,68.92
2018-12-11T11:19:30.642Z,69.53
2018-12-11T11:22:03.806Z,68.98
2018-12-11T11:24:40.579Z,69.22
2018-12-11T11:27:16.632Z,69.53
2018-12-11T11:29:50.659Z,68.63
2018-12-11T11:32:26.297Z,68.99
2018-12-11T11:35:00.056Z,69.20
2018-12-11T11:37:37.388Z,68.38
2018-12-11T11:40:11.143Z,68.94
2018-12-11T11:45:54.947Z,69.19
2018-12-11T11:51:33.782Z,67.85
2018-12-11T11:54:10.773Z,67.25
2018-12-11T11:56:57.087Z,67.94
2018-12-11T11:59:30.372Z,67.25
2018-12-11T12:02:07.777Z,67.15
2018-12-11T12:04:44.777Z,67.41
2018-12-11T12:07:21.144Z,68.08
2018-12-11T12:09:57.074Z,67.53
2018-12-11T12:12:40.375Z,67.90
2018-12-11T12:15:15.762Z,67.38
2018-12-11T12:18:04.443Z,67.65
2018-12-11T12:20:43.660Z,66.49
2018-12-11T12:23:17.516Z,67.76
2018-12-11T12:25:52.900Z,66.78
2018-12-11T12:28:29.967Z,66.73
2018-12-11T12:31:06.077Z,66.90
2018-12-11T12:33:42.109Z,66.57
2018-12-11T12:36:19.184Z,67.97
2018-12-11T12:38:54.925Z,67.13
2018-12-11T12:41:28.739Z,66.52
2018-12-11T12:47:07.016Z,67.03
2018-12-11T12:49:40.796Z,67.91
2018-12-11T12:52:32.503Z,67.20
2018-12-11T12:55:08.025Z,68.36
2018-12-11T12:57:41.836Z,68.07
2018-12-11T13:00:15.221Z,68.78
2018-12-11T13:02:50.743Z,68.69
2018-12-11T13:05:28.887Z,69.37
2018-12-11T13:08:04.973Z,68.30
2018-12-11T13:10:41.905Z,69.02
2018-12-11T13:13:17.895Z,69.52
2018-12-11T13:16:00.186Z,69.40
2018-12-11T13:18:36.866Z,69.43
2018-12-11T13:21:10.764Z,70.26
2018-12-11T13:23:46.264Z,69.80
2018-12-11T13:26:22.477Z,70.07
2018-12-11T13:28:56.218Z,69.76
2018-12-11T13:34:35.510Z,70.15
2018-12-11T13:37:11.513Z,70.01
2018-12-11T13:39:50.021Z,69.95
2018-12-11T13:42:24.787Z,70.60
2018-12-11T13:45:00.204Z,70.48
2018-12-11T13:47:37.330Z,70.12
2018-12-11T13:50:13.563Z,70.35
2018-12-11T13:52:47.318Z,70.33
2018-12-11T13:55:24.994Z,70.32
2018-12-11T13:58:07.262Z,70.52
2018-12-11T14:00:42.954Z,70.27
2018-12-11T14:09:32.820Z,71.19
2018-12-11T14:12:09.085Z,70.23
2018-12-11T14:14:44.726Z,70.99
2018-12-11T14:17:21.767Z,70.61
2018-12-11T14:20:04.136Z,70.04
2018-12-11T14:22:38.678Z,69.79
2018-12-11T14:25:12.630Z,70.43
2018-12-11T14:27:55.872Z,69.98
2018-12-11T14:30:31.712Z,70.93
2018-12-11T14:33:11.933Z,70.79
2018-12-11T14:35:45.318Z,71.01
2018-12-11T14:38:20.828Z,71.21
2018-12-11T14:40:58.017Z,71.52
2018-12-11T14:46:47.051Z,71.63
2018-12-11T14:49:22.829Z,71.56
2018-12-11T14:51:57.210Z,71.84
2018-12-11T14:57:05.256Z,71.32
2018-12-11T14:59:35.261Z,72.51
2018-12-11T15:02:11.441Z,71.89
2018-12-11T15:04:45.067Z,72.16
2018-12-11T15:07:21.486Z,72.68
2018-12-11T15:09:57.339Z,72.18
2018-12-11T15:12:33.553Z,72.85
2018-12-11T15:15:09.069Z,73.63
2018-12-11T15:17:45.312Z,73.15
2018-12-11T15:20:19.383Z,72.97
2018-12-11T15:22:56.414Z,72.83
2018-12-11T15:25:32.258Z,73.42
2018-12-11T15:28:10.655Z,72.63
2018-12-11T15:30:56.330Z,73.62
2018-12-11T15:33:34.320Z,73.89
2018-12-11T15:39:09.925Z,74.06
2018-12-11T15:42:01.263Z,74.56
2018-12-11T15:44:42.680Z,74.40
2018-12-11T15:47:25.443Z,74.75
2018-12-11T15:50:01.406Z,74.96
2018-12-11T15:55:38.898Z,75.66
2018-12-11T15:58:11.694Z,75.67
2018-12-11T16:00:51.299Z,75.68
2018-12-11T16:03:24.319Z,75.42
2018-12-11T16:06:07.664Z,75.31
2018-12-11T16:08:49.939Z,75.56
2018-12-11T16:20:41.165Z,76.17
2018-12-11T16:26:19.012Z,76.71
2018-12-11T16:28:50.094Z,76.14
2018-12-11T16:31:22.845Z,76.30
2018-12-11T16:33:52.841Z,75.98
2018-12-11T16:36:22.991Z,75.69
2018-12-11T16:38:52.967Z,75.94
2018-12-11T16:41:23.079Z,75.66
2018-12-11T16:43:53.886Z,75.98
2018-12-11T16:46:25.069Z,76.29
2018-12-11T16:48:55.082Z,75.42
2018-12-11T16:51:36.966Z,75.03
2018-12-11T16:54:17.790Z,75.36
2018-12-11T16:56:50.001Z,75.56
2018-12-11T20:53:06.279Z,84.26
2018-12-11T21:46:17.676Z,85.08
2018-12-11T21:48:48.058Z,84.81
2018-12-11T21:51:18.274Z,85.13
2018-12-11T21:53:48.621Z,84.95
2018-12-11T21:56:18.530Z,84.40
2018-12-11T21:58:48.543Z,84.57
2018-12-11T22:01:18.622Z,84.58
2018-12-11T22:03:48.606Z,84.55
2018-12-11T22:06:22.941Z,84.32
2018-12-11T22:08:52.999Z,84.37
2018-12-11T22:14:06.661Z,84.75
2018-12-11T22:16:37.192Z,84.64
2018-12-11T22:19:07.261Z,85.01
2018-12-11T22:21:37.505Z,84.85
2018-12-11T22:24:07.377Z,84.36
2018-12-11T22:26:37.542Z,84.28
2018-12-11T22:29:07.535Z,84.07
2018-12-11T22:31:37.595Z,83.84
2018-12-11T22:34:08.126Z,83.69
2018-12-11T22:36:38.706Z,84.25
2018-12-11T22:39:09.037Z,84.06
2018-12-11T22:41:40.221Z,83.92
2018-12-11T22:44:13.964Z,83.68
2018-12-11T22:46:43.870Z,83.80
2018-12-11T22:55:26.972Z,83.38
2018-12-11T22:58:03.156Z,83.66
2018-12-11T23:00:33.320Z,83.46
2018-12-11T23:03:05.438Z,83.64
2018-12-11T23:05:35.727Z,83.25
2018-12-11T23:08:06.005Z,83.47
2018-12-11T23:10:36.936Z,83.78
2018-12-11T23:13:07.223Z,83.24
2018-12-11T23:15:37.338Z,83.65
2018-12-11T23:18:07.382Z,83.89
2018-12-11T23:20:37.547Z,84.11
2018-12-11T23:23:07.959Z,84.46
2018-12-11T23:25:39.028Z,84.03
2018-12-11T23:28:08.994Z,83.52
2018-12-11T23:30:39.800Z,83.56
2018-12-11T23:33:11.570Z,83.84
2018-12-11T23:35:41.739Z,83.63
2018-12-11T23:38:11.695Z,83.77
2018-12-11T23:40:41.741Z,83.60
2018-12-11T23:43:12.462Z,82.94
2018-12-11T23:45:42.471Z,83.24
2018-12-11T23:48:13.387Z,83.14
2018-12-11T23:50:43.507Z,82.57
2018-12-11T23:53:13.746Z,83.00
2018-12-11T23:55:43.888Z,83.24
2018-12-11T23:58:13.922Z,82.53
